createdAt,value
2018-03-24T00:00:10.268Z,26.40
2018-03-24T00:02:41.176Z,26.40
2018-03-24T00:05:12.151Z,26.40
2018-03-24T00:07:43.459Z,26.50
2018-03-24T00:10:14.316Z,26.50
2018-03-24T00:15:20.908Z,26.50
2018-03-24T00:17:52.519Z,26.50
2018-03-24T00:20:23.267Z,26.50
2018-03-24T00:22:53.924Z,26.50
2018-03-24T00:25:25.913Z,26.50
2018-03-24T00:27:56.812Z,26.50
2018-03-24T00:30:28.372Z,26.60
2018-03-24T00:32:59.912Z,26.60
2018-03-24T00:35:30.760Z,26.60
2018-03-24T00:38:02.008Z,26.60
2018-03-24T00:40:33.411Z,26.60
2018-03-24T00:43:04.404Z,26.60
2018-03-24T00:45:35.858Z,26.70
2018-03-24T00:48:10.678Z,26.60
2018-03-24T00:50:42.585Z,26.70
2018-03-24T00:53:13.560Z,26.70
2018-03-24T00:55:44.482Z,26.70
2018-03-24T00:58:15.557Z,26.70
2018-03-24T01:00:47.303Z,26.70
2018-03-24T01:03:19.355Z,26.70
2018-03-24T01:05:50.328Z,26.70
2018-03-24T01:08:21.997Z,26.70
2018-03-24T01:10:52.904Z,26.70
2018-03-24T01:13:23.722Z,26.70
2018-03-24T01:15:54.464Z,26.70
2018-03-24T01:18:25.321Z,26.70
2018-03-24T01:20:56.976Z,26.70
2018-03-24T01:23:28.632Z,26.80
2018-03-24T01:26:00.174Z,26.80
2018-03-24T01:28:32.115Z,26.80
2018-03-24T01:31:02.684Z,26.80
2018-03-24T01:33:34.116Z,26.80
2018-03-24T01:36:04.660Z,26.80
2018-03-24T01:38:35.892Z,26.90
2018-03-24T01:41:06.729Z,26.80
2018-03-24T01:43:38.131Z,26.90
2018-03-24T01:46:08.841Z,26.90
2018-03-24T01:48:39.758Z,26.90
2018-03-24T01:51:11.293Z,27.00
2018-03-24T01:53:52.557Z,27.00
2018-03-24T01:56:23.452Z,27.00
2018-03-24T01:58:55.815Z,27.00
2018-03-24T02:01:27.859Z,27.10
2018-03-24T02:03:59.504Z,27.10
2018-03-24T02:06:30.248Z,27.10
2018-03-24T02:09:01.891Z,27.10
2018-03-24T02:11:32.753Z,27.10
2018-03-24T02:14:04.313Z,27.20
2018-03-24T02:16:36.656Z,27.20
2018-03-24T02:19:07.512Z,27.20
2018-03-24T02:21:40.257Z,27.20
2018-03-24T02:24:11.131Z,27.20
2018-03-24T02:26:43.491Z,27.30
2018-03-24T02:29:17.313Z,27.30
2018-03-24T02:31:49.058Z,27.30
2018-03-24T02:34:20.693Z,27.30
2018-03-24T02:36:51.645Z,27.30
2018-03-24T02:39:22.118Z,27.30
2018-03-24T02:41:53.019Z,27.40
2018-03-24T02:44:24.715Z,27.40
2018-03-24T02:46:56.247Z,27.40
2018-03-24T02:49:27.099Z,27.40
2018-03-24T02:51:57.903Z,27.40
2018-03-24T02:54:31.421Z,27.50
2018-03-24T02:57:02.069Z,27.40
2018-03-24T02:59:32.595Z,27.50
2018-03-24T03:02:03.741Z,27.50
2018-03-24T03:04:34.224Z,27.50
2018-03-24T03:07:04.752Z,27.50
2018-03-24T03:09:35.583Z,27.60
2018-03-24T03:12:06.367Z,27.60
2018-03-24T03:14:37.245Z,27.60
2018-03-24T03:17:08.192Z,27.60
2018-03-24T03:19:38.936Z,27.70
2018-03-24T03:22:10.673Z,27.70
2018-03-24T03:24:42.053Z,27.60
2018-03-24T03:27:13.831Z,27.70
2018-03-24T03:29:45.164Z,27.70
2018-03-24T03:32:27.522Z,27.70
2018-03-24T03:34:58.406Z,27.70
2018-03-24T03:37:30.051Z,27.80
2018-03-24T03:40:01.776Z,27.80
2018-03-24T03:42:32.521Z,27.80
2018-03-24T03:45:04.333Z,27.80
2018-03-24T03:47:35.173Z,27.80
2018-03-24T03:50:05.640Z,27.80
2018-03-24T03:52:37.764Z,27.80
2018-03-24T03:55:08.240Z,27.80
2018-03-24T03:57:38.724Z,27.80
2018-03-24T04:00:09.560Z,27.80
2018-03-24T04:02:40.396Z,27.80
2018-03-24T04:05:11.385Z,27.90
2018-03-24T04:07:42.108Z,27.90
2018-03-24T04:10:12.856Z,27.90
2018-03-24T04:12:43.763Z,27.90
2018-03-24T04:15:14.641Z,27.90
2018-03-24T04:20:21.523Z,28.00
2018-03-24T04:22:52.365Z,28.00
2018-03-24T04:25:23.096Z,28.00
2018-03-24T04:27:53.830Z,28.10
2018-03-24T04:30:24.689Z,28.10
2018-03-24T04:32:56.402Z,28.10
2018-03-24T04:35:29.673Z,28.20
2018-03-24T04:38:00.120Z,28.20
2018-03-24T04:40:31.280Z,28.20
2018-03-24T04:43:02.267Z,28.20
2018-03-24T04:45:32.943Z,28.20
2018-03-24T04:48:05.186Z,28.20
2018-03-24T04:50:38.283Z,28.30
2018-03-24T04:53:09.676Z,28.30
2018-03-24T04:55:41.005Z,28.30
2018-03-24T05:00:46.704Z,28.40
2018-03-24T05:03:18.361Z,28.40
2018-03-24T05:05:50.870Z,28.50
2018-03-24T05:08:22.145Z,28.50
2018-03-24T05:10:53.179Z,28.50
2018-03-24T05:13:24.556Z,28.50
2018-03-24T05:15:55.033Z,28.50
2018-03-24T05:18:25.483Z,28.50
2018-03-24T05:20:56.277Z,28.60
2018-03-24T05:23:26.975Z,28.60
2018-03-24T05:25:57.718Z,28.60
2018-03-24T05:28:29.320Z,28.60
2018-03-24T05:31:00.235Z,28.60
2018-03-24T05:33:30.969Z,28.60
2018-03-24T05:36:01.848Z,28.70
2018-03-24T05:38:33.167Z,28.70
2018-03-24T05:41:04.041Z,28.70
2018-03-24T05:43:34.523Z,28.70
2018-03-24T05:46:05.932Z,28.80
2018-03-24T05:48:36.832Z,28.80
2018-03-24T05:51:07.334Z,28.80
2018-03-24T05:53:38.149Z,28.90
2018-03-24T05:56:09.806Z,28.90
2018-03-24T05:58:41.647Z,28.90
2018-03-24T06:01:12.527Z,28.90
2018-03-24T06:03:43.172Z,28.90
2018-03-24T06:06:14.644Z,29.00
2018-03-24T06:08:46.312Z,29.00
2018-03-24T06:11:17.287Z,29.00
2018-03-24T06:13:48.134Z,29.00
2018-03-24T06:16:18.846Z,29.00
2018-03-24T06:18:50.404Z,29.10
2018-03-24T06:21:22.044Z,29.10
2018-03-24T06:23:52.890Z,29.00
2018-03-24T06:26:24.706Z,29.10
2018-03-24T06:28:55.740Z,29.10
2018-03-24T06:31:29.261Z,29.10
2018-03-24T06:34:00.372Z,29.10
2018-03-24T06:36:32.237Z,29.10
2018-03-24T06:39:03.222Z,29.20
2018-03-24T06:41:34.039Z,29.20
2018-03-24T06:44:04.916Z,29.20
2018-03-24T06:46:36.966Z,29.30
2018-03-24T06:49:09.470Z,29.30
2018-03-24T06:51:40.097Z,29.20
2018-03-24T06:54:10.903Z,29.30
2018-03-24T06:56:42.447Z,29.30
2018-03-24T06:59:13.001Z,29.30
2018-03-24T07:01:43.948Z,29.30
2018-03-24T07:04:14.771Z,29.30
2018-03-24T07:06:46.324Z,29.30
2018-03-24T07:09:17.145Z,29.30
2018-03-24T07:11:47.707Z,29.40
2018-03-24T07:14:18.310Z,29.40
2018-03-24T07:16:50.709Z,29.40
2018-03-24T07:19:21.459Z,29.40
2018-03-24T07:21:52.589Z,29.40
2018-03-24T07:24:23.323Z,29.40
2018-03-24T07:26:54.209Z,29.40
2018-03-24T07:29:24.930Z,29.50
2018-03-24T07:31:55.428Z,29.50
2018-03-24T07:34:26.305Z,29.50
2018-03-24T07:36:57.056Z,29.50
2018-03-24T07:39:27.905Z,29.50
2018-03-24T07:41:59.621Z,29.50
2018-03-24T07:44:30.424Z,29.50
2018-03-24T07:47:01.239Z,29.60
2018-03-24T07:49:32.874Z,29.60
2018-03-24T07:52:04.087Z,29.60
2018-03-24T07:54:34.759Z,29.60
2018-03-24T07:57:05.356Z,29.60
2018-03-24T07:59:36.480Z,29.60
2018-03-24T08:02:07.194Z,29.70
2018-03-24T08:04:38.028Z,29.70
2018-03-24T08:07:08.483Z,29.70
2018-03-24T08:09:39.289Z,29.70
2018-03-24T08:12:09.980Z,29.70
2018-03-24T08:14:40.698Z,29.70
2018-03-24T08:17:13.692Z,29.80
2018-03-24T08:19:45.216Z,29.80
2018-03-24T08:22:16.734Z,29.80
2018-03-24T08:24:48.067Z,29.80
2018-03-24T08:27:18.983Z,29.80
2018-03-24T08:29:49.684Z,29.80
2018-03-24T08:32:20.689Z,29.80
2018-03-24T08:34:52.373Z,29.80
2018-03-24T08:37:23.418Z,29.80
2018-03-24T08:39:54.259Z,29.80
2018-03-24T08:42:25.265Z,29.90
2018-03-24T08:44:58.256Z,29.90
2018-03-24T08:47:29.871Z,29.90
2018-03-24T08:50:00.728Z,29.90
2018-03-24T08:52:31.211Z,29.90
2018-03-24T08:55:02.022Z,29.90
2018-03-24T08:57:32.648Z,29.90
2018-03-24T09:00:04.260Z,30.00
2018-03-24T09:02:35.009Z,30.00
2018-03-24T09:05:06.147Z,30.00
2018-03-24T09:07:37.673Z,30.00
2018-03-24T09:10:08.663Z,30.00
2018-03-24T09:12:41.132Z,30.00
2018-03-24T09:15:14.696Z,30.00
2018-03-24T09:17:45.565Z,30.00
2018-03-24T09:20:17.569Z,30.00
2018-03-24T09:22:48.865Z,30.00
2018-03-24T09:25:19.924Z,30.10
2018-03-24T09:27:52.350Z,30.10
2018-03-24T09:30:22.971Z,30.10
2018-03-24T09:32:53.862Z,30.10
2018-03-24T09:35:26.960Z,30.10
2018-03-24T09:37:57.910Z,30.10
2018-03-24T09:40:28.759Z,30.10
2018-03-24T09:42:59.549Z,30.10
2018-03-24T09:45:30.291Z,30.20
2018-03-24T09:48:01.907Z,30.20
2018-03-24T09:50:33.605Z,30.10
2018-03-24T09:53:05.750Z,30.20
2018-03-24T09:55:36.306Z,30.10
2018-03-24T09:58:07.728Z,30.20
2018-03-24T10:00:38.684Z,30.10
2018-03-24T10:03:10.003Z,30.20
2018-03-24T10:05:41.117Z,30.20
2018-03-24T10:08:12.089Z,30.30
2018-03-24T10:10:42.847Z,30.30
2018-03-24T10:13:13.887Z,30.30
2018-03-24T10:15:44.652Z,30.30
2018-03-24T10:18:15.666Z,30.30
2018-03-24T10:24:20.281Z,30.30
2018-03-24T10:26:51.057Z,30.30
2018-03-24T10:29:22.693Z,30.30
2018-03-24T10:31:53.620Z,30.30
2018-03-24T10:34:24.315Z,30.30
2018-03-24T10:36:55.212Z,30.30
2018-03-24T10:39:25.879Z,30.30
2018-03-24T10:41:57.960Z,30.30
2018-03-24T10:44:30.170Z,30.40
2018-03-24T10:47:00.956Z,30.40
2018-03-24T10:49:32.463Z,30.30
2018-03-24T10:52:03.944Z,30.40
2018-03-24T10:54:35.067Z,30.30
2018-03-24T10:57:06.675Z,30.40
2018-03-24T10:59:37.495Z,30.30
2018-03-24T11:02:08.264Z,30.40
2018-03-24T11:04:39.207Z,30.40
2018-03-24T11:07:11.861Z,30.40
2018-03-24T11:09:42.800Z,30.40
2018-03-24T11:12:13.774Z,30.40
2018-03-24T11:14:44.897Z,30.40
2018-03-24T11:17:17.080Z,30.40
2018-03-24T11:19:47.824Z,30.40
2018-03-24T11:22:19.869Z,30.40
2018-03-24T11:24:50.801Z,30.40
2018-03-24T11:27:22.242Z,30.40
2018-03-24T11:29:52.972Z,30.40
2018-03-24T11:32:23.791Z,30.40
2018-03-24T11:34:54.767Z,30.40
2018-03-24T11:37:25.603Z,30.40
2018-03-24T11:39:56.724Z,30.40
2018-03-24T11:42:27.572Z,30.40
2018-03-24T11:44:58.429Z,30.40
2018-03-24T11:47:30.264Z,30.40
2018-03-24T11:50:01.265Z,30.40
2018-03-24T11:52:32.735Z,30.40
2018-03-24T11:55:05.167Z,30.40
2018-03-24T11:57:36.717Z,30.40
2018-03-24T12:00:10.283Z,30.40
2018-03-24T12:02:41.120Z,30.40
2018-03-24T12:05:12.231Z,30.40
2018-03-24T12:07:43.044Z,30.40
2018-03-24T12:10:13.646Z,30.40
2018-03-24T12:12:44.418Z,30.40
2018-03-24T12:15:16.399Z,30.40
2018-03-24T12:17:47.981Z,30.40
2018-03-24T12:20:18.516Z,30.50
2018-03-24T12:22:49.554Z,30.40
2018-03-24T12:25:20.199Z,30.40
2018-03-24T12:27:52.050Z,30.40
2018-03-24T12:30:22.800Z,30.40
2018-03-24T12:32:53.721Z,30.40
2018-03-24T12:35:24.705Z,30.40
2018-03-24T12:37:55.650Z,30.50
2018-03-24T12:40:26.697Z,30.50
2018-03-24T12:42:57.510Z,30.50
2018-03-24T12:45:28.859Z,30.50
2018-03-24T12:48:00.471Z,30.40
2018-03-24T12:50:31.607Z,30.50
2018-03-24T12:53:02.381Z,30.50
2018-03-24T12:55:33.900Z,30.40
2018-03-24T12:58:04.773Z,30.40
2018-03-24T13:00:36.396Z,30.40
2018-03-24T13:03:07.338Z,30.40
2018-03-24T13:05:38.158Z,30.50
2018-03-24T13:08:08.932Z,30.50
2018-03-24T13:10:41.605Z,30.40
2018-03-24T13:13:12.427Z,30.40
2018-03-24T13:15:43.272Z,30.40
2018-03-24T13:18:14.341Z,30.40
2018-03-24T13:20:46.004Z,30.40
2018-03-24T13:23:16.955Z,30.40
2018-03-24T13:25:47.738Z,30.40
2018-03-24T13:28:18.904Z,30.50
2018-03-24T13:30:51.020Z,30.50
2018-03-24T13:33:23.038Z,30.40
2018-03-24T13:35:54.640Z,30.40
2018-03-24T13:38:25.100Z,30.40
2018-03-24T13:40:56.449Z,30.40
2018-03-24T13:43:27.201Z,30.40
2018-03-24T13:45:58.812Z,30.40
2018-03-24T13:48:29.883Z,30.40
2018-03-24T13:51:02.340Z,30.40
2018-03-24T13:53:34.289Z,30.40
2018-03-24T13:56:05.184Z,30.40
2018-03-24T13:58:35.919Z,30.40
2018-03-24T14:01:07.469Z,30.40
2018-03-24T14:03:37.974Z,30.40
2018-03-24T14:06:09.733Z,30.40
2018-03-24T14:08:41.796Z,30.30
2018-03-24T14:11:13.353Z,30.30
2018-03-24T14:13:44.955Z,30.40
2018-03-24T14:16:17.704Z,30.40
2018-03-24T14:18:49.565Z,30.30
2018-03-24T14:21:21.316Z,30.30
2018-03-24T14:23:52.895Z,30.30
2018-03-24T14:26:24.150Z,30.30
2018-03-24T14:28:55.108Z,30.30
2018-03-24T14:31:26.020Z,30.30
2018-03-24T14:33:57.360Z,30.30
2018-03-24T14:36:29.700Z,30.30
2018-03-24T14:39:00.931Z,30.30
2018-03-24T14:41:31.798Z,30.30
2018-03-24T14:44:03.536Z,30.20
2018-03-24T14:46:34.478Z,30.20
2018-03-24T14:49:05.440Z,30.30
2018-03-24T14:51:37.104Z,30.20
2018-03-24T14:54:07.890Z,30.20
2018-03-24T14:56:39.834Z,30.20
2018-03-24T14:59:11.295Z,30.20
2018-03-24T15:01:44.631Z,30.20
2018-03-24T15:04:16.395Z,30.20
2018-03-24T15:06:48.496Z,30.20
2018-03-24T15:09:19.432Z,30.20
2018-03-24T15:11:51.964Z,30.20
2018-03-24T15:14:24.197Z,30.20
2018-03-24T15:16:55.993Z,30.20
2018-03-24T15:19:28.633Z,30.20
2018-03-24T15:21:59.390Z,30.20
2018-03-24T15:24:29.954Z,30.20
2018-03-24T15:27:00.764Z,30.20
2018-03-24T15:29:43.702Z,30.20
2018-03-24T15:32:24.835Z,30.20
2018-03-24T15:35:06.995Z,30.10
2018-03-24T15:37:37.996Z,30.20
2018-03-24T15:40:09.172Z,30.20
2018-03-24T15:42:40.790Z,30.20
2018-03-24T15:45:11.805Z,30.20
2018-03-24T15:47:42.876Z,30.20
2018-03-24T15:50:14.570Z,30.10
2018-03-24T15:52:45.580Z,30.10
2018-03-24T15:55:16.958Z,30.10
2018-03-24T15:57:47.894Z,30.10
2018-03-24T16:00:18.618Z,30.10
2018-03-24T16:02:49.404Z,30.10
2018-03-24T16:05:20.164Z,30.10
2018-03-24T16:07:51.125Z,30.10
2018-03-24T16:10:21.956Z,30.10
2018-03-24T16:12:53.629Z,30.00
2018-03-24T16:15:24.705Z,30.10
2018-03-24T16:17:56.080Z,30.00
2018-03-24T16:20:27.007Z,30.00
2018-03-24T16:22:57.981Z,30.00
2018-03-24T16:25:29.781Z,30.00
2018-03-24T16:28:00.555Z,30.00
2018-03-24T16:30:31.581Z,30.00
2018-03-24T16:33:02.451Z,30.00
2018-03-24T16:35:33.188Z,30.00
2018-03-24T16:38:04.852Z,29.90
2018-03-24T16:40:35.668Z,29.90
2018-03-24T16:43:07.254Z,29.90
2018-03-24T16:45:38.842Z,29.90
2018-03-24T16:48:09.736Z,29.90
2018-03-24T16:50:40.561Z,29.90
2018-03-24T16:53:12.294Z,29.90
2018-03-24T16:55:42.943Z,29.90
2018-03-24T16:58:13.785Z,29.90
2018-03-24T17:00:46.123Z,29.80
2018-03-24T17:03:16.640Z,29.90
2018-03-24T17:05:47.621Z,29.80
2018-03-24T17:08:19.228Z,29.80
2018-03-24T17:10:50.776Z,29.80
2018-03-24T17:13:21.529Z,29.80
2018-03-24T17:15:52.502Z,29.80
2018-03-24T17:18:24.191Z,29.80
2018-03-24T17:20:55.057Z,29.80
2018-03-24T17:23:25.962Z,29.80
2018-03-24T17:25:56.971Z,29.80
2018-03-24T17:28:28.306Z,29.80
2018-03-24T17:30:59.175Z,29.80
2018-03-24T17:33:30.013Z,29.70
2018-03-24T17:36:00.869Z,29.70
2018-03-24T17:38:32.893Z,29.70
2018-03-24T17:41:04.136Z,29.70
2018-03-24T17:43:35.859Z,29.70
2018-03-24T17:46:06.609Z,29.70
2018-03-24T17:48:38.240Z,29.70
2018-03-24T17:51:09.269Z,29.70
2018-03-24T17:53:40.212Z,29.70
2018-03-24T17:56:11.268Z,29.70
2018-03-24T17:58:42.126Z,29.70
2018-03-24T18:01:12.939Z,29.70
2018-03-24T18:03:43.800Z,29.70
2018-03-24T18:06:15.178Z,29.70
2018-03-24T18:08:45.901Z,29.60
2018-03-24T18:11:17.511Z,29.70
2018-03-24T18:13:48.280Z,29.60
2018-03-24T18:16:20.012Z,29.60
2018-03-24T18:18:50.799Z,29.60
2018-03-24T18:21:21.640Z,29.60
2018-03-24T18:23:52.465Z,29.60
2018-03-24T18:26:24.109Z,29.50
2018-03-24T18:28:55.861Z,29.60
2018-03-24T18:31:27.359Z,29.50
2018-03-24T18:33:58.035Z,29.50
2018-03-24T18:36:29.273Z,29.50
2018-03-24T18:39:00.264Z,29.50
2018-03-24T18:41:31.096Z,29.50
2018-03-24T18:44:01.924Z,29.50
2018-03-24T18:46:32.429Z,29.50
2018-03-24T18:49:04.039Z,29.50
2018-03-24T18:51:34.916Z,29.50
2018-03-24T18:54:05.649Z,29.60
2018-03-24T18:56:37.701Z,29.50
2018-03-24T18:59:09.450Z,29.50
2018-03-24T19:01:39.908Z,29.50
2018-03-24T19:04:11.877Z,29.50
2018-03-24T19:06:43.588Z,29.50
2018-03-24T19:09:14.469Z,29.50
2018-03-24T19:11:45.184Z,29.50
2018-03-24T19:14:16.000Z,29.50
2018-03-24T19:16:46.945Z,29.50
2018-03-24T19:19:18.466Z,29.50
2018-03-24T19:21:49.354Z,29.50
2018-03-24T19:24:22.032Z,29.50
2018-03-24T19:26:53.804Z,29.40
2018-03-24T19:29:25.552Z,29.50
2018-03-24T19:31:57.201Z,29.50
2018-03-24T19:34:28.071Z,29.50
2018-03-24T19:36:58.876Z,29.50
2018-03-24T19:39:29.588Z,29.40
2018-03-24T19:42:00.464Z,29.40
2018-03-24T19:44:32.136Z,29.40
2018-03-24T19:47:03.521Z,29.40
2018-03-24T19:49:34.230Z,29.40
2018-03-24T19:52:05.193Z,29.40
2018-03-24T19:54:36.081Z,29.40
2018-03-24T19:57:07.845Z,29.30
2018-03-24T19:59:38.655Z,29.30
2018-03-24T20:02:10.327Z,29.30
2018-03-24T20:04:42.119Z,29.30
2018-03-24T20:07:12.948Z,29.30
2018-03-24T20:09:43.742Z,29.30
2018-03-24T20:12:16.227Z,29.30
2018-03-24T20:14:47.837Z,29.30
2018-03-24T20:17:18.728Z,29.30
2018-03-24T20:19:49.541Z,29.30
2018-03-24T20:22:20.437Z,29.30
2018-03-24T20:24:51.359Z,29.30
2018-03-24T20:27:22.308Z,29.30
2018-03-24T20:29:53.532Z,29.20
2018-03-24T20:32:24.449Z,29.20
2018-03-24T20:34:55.985Z,29.20
2018-03-24T20:37:27.621Z,29.30
2018-03-24T20:39:59.504Z,29.20
2018-03-24T20:42:30.385Z,29.20
2018-03-24T20:45:02.432Z,29.20
2018-03-24T20:47:34.078Z,29.20
2018-03-24T20:50:05.580Z,29.20
2018-03-24T20:52:36.365Z,29.20
2018-03-24T20:55:07.832Z,29.20
2018-03-24T20:57:39.591Z,29.20
2018-03-24T21:00:10.479Z,29.20
2018-03-24T21:02:40.935Z,29.20
2018-03-24T21:05:12.546Z,29.20
2018-03-24T21:07:43.302Z,29.10
2018-03-24T21:10:15.017Z,29.10
2018-03-24T21:12:45.924Z,29.10
2018-03-24T21:15:17.359Z,29.10
2018-03-24T21:17:49.123Z,29.10
2018-03-24T21:20:21.571Z,29.10
2018-03-24T21:22:52.134Z,29.10
2018-03-24T21:25:23.606Z,29.10
2018-03-24T21:27:54.622Z,29.10
2018-03-24T21:30:26.135Z,29.10
2018-03-24T21:32:56.999Z,29.10
2018-03-24T21:35:28.661Z,29.10
2018-03-24T21:38:00.160Z,29.10
2018-03-24T21:40:31.099Z,29.10
2018-03-24T21:43:01.900Z,29.00
2018-03-24T21:45:34.087Z,29.00
2018-03-24T21:48:04.971Z,29.00
2018-03-24T21:50:35.675Z,29.00
2018-03-24T21:53:06.551Z,29.00
2018-03-24T21:55:37.024Z,29.10
2018-03-24T21:58:07.862Z,29.10
2018-03-24T22:00:38.590Z,29.10
2018-03-24T22:03:09.076Z,29.00
2018-03-24T22:05:39.542Z,29.00
2018-03-24T22:08:10.603Z,29.00
2018-03-24T22:10:41.518Z,29.00
2018-03-24T22:13:12.356Z,29.00
2018-03-24T22:15:43.104Z,29.00
2018-03-24T22:18:14.267Z,29.00
2018-03-24T22:20:45.457Z,29.00
2018-03-24T22:23:16.981Z,29.00
2018-03-24T22:25:47.933Z,29.00
2018-03-24T22:28:18.881Z,29.00
2018-03-24T22:30:51.110Z,29.00
2018-03-24T22:33:22.023Z,29.00
2018-03-24T22:35:52.503Z,29.00
2018-03-24T22:38:23.336Z,28.90
2018-03-24T22:40:54.260Z,28.90
2018-03-24T22:43:27.689Z,28.90
2018-03-24T22:45:59.891Z,28.90
2018-03-24T22:48:30.657Z,28.90
2018-03-24T22:51:01.957Z,28.90
2018-03-24T22:53:33.551Z,28.90
2018-03-24T22:56:04.209Z,28.90
2018-03-24T22:58:34.921Z,28.90
2018-03-24T23:01:05.816Z,28.90
2018-03-24T23:03:37.348Z,28.90
2018-03-24T23:06:08.869Z,28.90
2018-03-24T23:08:39.686Z,28.90
2018-03-24T23:11:11.698Z,28.90
2018-03-24T23:13:42.173Z,28.90
2018-03-24T23:16:12.879Z,28.90
2018-03-24T23:18:44.536Z,28.80
2018-03-24T23:21:15.799Z,28.80
2018-03-24T23:23:46.605Z,28.80
2018-03-24T23:26:17.880Z,28.80
2018-03-24T23:28:49.391Z,28.80
2018-03-24T23:31:21.596Z,28.80
2018-03-24T23:33:54.082Z,28.80
2018-03-24T23:36:26.222Z,28.80
2018-03-24T23:38:57.180Z,28.80
2018-03-24T23:41:28.831Z,28.80
2018-03-24T23:44:00.989Z,28.80
2018-03-24T23:46:32.300Z,28.70
2018-03-24T23:49:03.519Z,28.80
2018-03-24T23:51:35.754Z,28.70
2018-03-24T23:54:07.135Z,28.70
2018-03-24T23:56:38.596Z,28.80
2018-03-24T23:59:09.339Z,28.80
